SARC/CNQ METAR and TAF weather

Enter ICAO airport designator
Station Type Date Time Source
SARC METAR 2022/06/28 09:00 UTC NOAA

SARC 280900Z 23005KT 3500 +DZ OVC002 17/17 Q1013


Station Type Date Time Source
SARC Decoded METAR 2022/06/28 09:00 UTC NOAA

Corrientes Aero., Argentina (SARC) 27-27S 058-46W 62M
Jun 28, 2022 - 05:00 AM EDT / 2022.06.28 0900 UTC
Wind: from the SW (230 degrees) at 6 MPH (5 KT):0
Visibility: 2 mile(s):0
Sky conditions: overcast
Weather: heavy drizzle
Temperature: 62 F (17 C)
Dew Point: 62 F (17 C)
Relative Humidity: 100%
Pressure (altimeter): 29.91 in. Hg (1013 hPa)
ob: SARC 280900Z 23005KT 3500 +DZ OVC002 17/17 Q1013
cycle: 9

Station Type Date Time Source
SARC TAF 2022/06/20 18:51 UTC NOAA

TAF SARC 201700Z 2018/2118 05005KT CAVOK TX23/2018Z TN14/2110Z
BECMG 2105/2107 14005KT 9999 SCT025 BKN100
BECMG 2112/2114 7000 -SHRA BKN025 FEW045CB BKN100

Example: see airport list